Terminal Aerodrome Forecast
Issued by NWS Albany, NY

Home | Current Version | Previous Version | Text Only | Print | Product List | Glossary On
Versions: 1 2 3 4 5 6 7 8 9 10 11 12 13 14 15 16 17 18 19 20 21
000
FTUS41 KALY 011100
TAFALB
TAF
KALB 011140Z 0112/0212 20005KT P6SM BKN070 BKN250
     FM011500 17008KT P6SM SCT035 SCT100
     FM011800 18010KT P6SM BKN040
     FM020000 18008KT P6SM SCT050 SCT100 BKN250
     FM020400 18005KT P6SM SCT050 BKN100 BKN250
     FM020800 VRB03KT 5SM BR BKN050 BKN100=

USA.gov is the U.S. government's official web portal to all federal, state and local government web resources and services.